Time;durP1;ratioP1;P1;durP2;ratioP2;P2;SDS_P1;SDS_P2;PMS_P1;PMS_P2;Temp;Humidity;BMP_temperature;BMP_pressure;BME280_temperature;BME280_humidity;BME280_pressure;Samples;Min_cycle;Max_cycle;Signal;HPM_P1;HPM_P2
2021/08/02 00:01:31;;;;;;;0.95;0.90;;;24.20;51.10;;;;;;5134439;28;20054;-55
2021/08/02 00:04:04;;;;;;;0.80;0.80;;;24.20;51.10;;;;;;5134051;28;20047;-52
2021/08/02 00:06:38;;;;;;;0.82;0.82;;;24.20;51.10;;;;;;5134017;28;20055;-52
2021/08/02 00:09:06;;;;;;;0.80;0.80;;;24.20;51.20;;;;;;5133989;28;20055;-55
2021/08/02 00:11:44;;;;;;;0.70;0.70;;;24.20;51.20;;;;;;5134251;28;20055;-54
2021/08/02 00:14:12;;;;;;;0.70;0.70;;;24.20;51.20;;;;;;5134450;28;20039;-54
2021/08/02 00:16:38;;;;;;;0.60;0.60;;;24.20;51.20;;;;;;5133756;28;20080;-51
2021/08/02 00:19:06;;;;;;;0.70;0.70;;;24.20;51.20;;;;;;5134107;28;20050;-53
2021/08/02 00:21:33;;;;;;;0.70;0.70;;;24.20;51.20;;;;;;5133759;28;20055;-54
2021/08/02 00:23:59;;;;;;;1.00;0.90;;;24.20;51.20;;;;;;5133847;28;20047;-53
2021/08/02 00:26:25;;;;;;;0.75;0.75;;;24.20;51.20;;;;;;5115047;28;20147;-50
2021/08/02 00:28:51;;;;;;;0.80;0.80;;;24.20;51.30;;;;;;5132853;27;20093;-52
2021/08/02 00:31:18;;;;;;;0.65;0.65;;;24.20;51.30;;;;;;5133529;28;20062;-51
2021/08/02 00:33:44;;;;;;;0.70;0.70;;;24.10;51.30;;;;;;5134127;28;20379;-52
2021/08/02 00:36:46;;;;;;;1.05;0.90;;;24.10;51.30;;;;;;5133648;28;20055;-50
2021/08/02 00:39:33;;;;;;;0.70;0.70;;;24.10;51.30;;;;;;5102978;28;20383;-51
2021/08/02 00:42:38;;;;;;;0.98;0.98;;;24.10;51.30;;;;;;5133604;28;20059;-53
2021/08/02 00:45:08;;;;;;;0.70;0.70;;;24.10;51.30;;;;;;5115097;28;20049;-50
2021/08/02 00:47:58;;;;;;;0.68;0.68;;;24.10;51.30;;;;;;5115534;28;20138;-50
2021/08/02 00:50:29;;;;;;;0.80;0.80;;;24.10;51.30;;;;;;5114049;28;20205;-53
2021/08/02 00:53:12;;;;;;;0.80;0.80;;;24.10;51.40;;;;;;5115010;28;20051;-52
2021/08/02 00:55:43;;;;;;;0.60;0.60;;;24.10;51.40;;;;;;5115503;28;20051;-51
2021/08/02 00:58:13;;;;;;;0.70;0.70;;;24.10;51.40;;;;;;5133537;28;20055;-52
2021/08/02 01:00:42;;;;;;;0.80;0.75;;;24.10;51.40;;;;;;5115014;28;20138;-54
2021/08/02 01:03:10;;;;;;;0.63;0.63;;;24.10;51.40;;;;;;5114934;28;20092;-54
2021/08/02 01:05:40;;;;;;;0.80;0.80;;;24.10;51.40;;;;;;5114906;28;20050;-52
2021/08/02 01:08:15;;;;;;;0.82;0.82;;;24.10;51.40;;;;;;5133273;28;20429;-52
2021/08/02 01:10:46;;;;;;;0.63;0.63;;;24.10;51.50;;;;;;5133660;28;20248;-50
2021/08/02 01:13:16;;;;;;;0.85;0.80;;;24.10;51.50;;;;;;5115169;28;20142;-50
2021/08/02 01:15:45;;;;;;;0.77;0.77;;;24.10;51.50;;;;;;5114725;28;20057;-51
2021/08/02 01:18:13;;;;;;;1.10;0.88;;;24.10;51.50;;;;;;5133089;28;20059;-51
2021/08/02 01:20:44;;;;;;;0.70;0.70;;;24.10;51.50;;;;;;5115159;28;20053;-51
2021/08/02 01:23:14;;;;;;;0.93;0.93;;;24.00;51.40;;;;;;5114829;28;20051;-54
2021/08/02 01:25:39;;;;;;;0.88;0.88;;;24.10;51.50;;;;;;5133682;28;20047;-55
2021/08/02 01:28:14;;;;;;;0.80;0.80;;;24.00;51.50;;;;;;5133224;28;20055;-54
2021/08/02 01:30:51;;;;;;;0.93;0.70;;;24.00;51.50;;;;;;5114984;28;20055;-50
2021/08/02 01:33:19;;;;;;;0.70;0.70;;;24.00;51.50;;;;;;5114910;28;20047;-49
2021/08/02 01:35:48;;;;;;;1.02;0.80;;;24.00;51.50;;;;;;5133192;28;20506;-56
2021/08/02 01:38:16;;;;;;;0.98;0.90;;;24.00;51.50;;;;;;5114738;28;20055;-52
2021/08/02 01:40:43;;;;;;;0.80;0.80;;;24.00;51.50;;;;;;5117063;28;20141;-54
2021/08/02 01:43:08;;;;;;;0.60;0.60;;;24.00;51.50;;;;;;5118163;28;20143;-50
2021/08/02 01:45:57;;;;;;;0.82;0.80;;;24.00;51.50;;;;;;5137048;28;20051;-52
2021/08/02 01:48:47;;;;;;;1.00;1.00;;;24.00;51.50;;;;;;5136363;28;20128;-53
2021/08/02 01:51:23;;;;;;;0.80;0.80;;;24.00;51.60;;;;;;5136324;28;20055;-52
2021/08/02 01:54:11;;;;;;;0.60;0.60;;;24.00;51.60;;;;;;5116954;28;20052;-53
2021/08/02 01:56:44;;;;;;;1.08;0.75;;;24.00;51.60;;;;;;5136274;28;20097;-53
2021/08/02 01:59:21;;;;;;;0.88;0.88;;;24.00;51.60;;;;;;5117846;28;20050;-53
2021/08/02 02:01:57;;;;;;;1.00;0.90;;;24.00;51.60;;;;;;5118087;28;20047;-54
2021/08/02 02:04:38;;;;;;;0.68;0.68;;;24.00;51.60;;;;;;5117587;28;20078;-55
2021/08/02 02:07:10;;;;;;;0.77;0.77;;;23.90;51.60;;;;;;5116238;28;20047;-48
2021/08/02 02:09:48;;;;;;;0.80;0.80;;;24.00;51.70;;;;;;5136461;28;20083;-54
2021/08/02 02:12:15;;;;;;;0.70;0.70;;;24.00;51.70;;;;;;5135903;28;20047;-51
2021/08/02 02:14:42;;;;;;;0.80;0.80;;;23.90;51.60;;;;;;5117429;28;20050;-54
2021/08/02 02:17:17;;;;;;;0.60;0.60;;;23.90;51.60;;;;;;5116964;28;20055;-51
2021/08/02 02:19:45;;;;;;;0.70;0.70;;;23.90;51.60;;;;;;5117703;28;20051;-53
2021/08/02 02:22:14;;;;;;;0.80;0.80;;;23.90;51.70;;;;;;5117629;28;20051;-55
2021/08/02 02:24:42;;;;;;;0.68;0.68;;;23.90;51.70;;;;;;5136209;28;20089;-50
2021/08/02 02:27:13;;;;;;;0.80;0.80;;;23.90;51.70;;;;;;5117118;28;20054;-54
2021/08/02 02:29:45;;;;;;;0.60;0.60;;;23.90;51.70;;;;;;5117362;28;20092;-53
2021/08/02 02:32:11;;;;;;;0.63;0.63;;;23.90;51.70;;;;;;5136014;28;20051;-53
2021/08/02 02:34:38;;;;;;;0.60;0.60;;;23.90;51.80;;;;;;5117406;28;20076;-53
2021/08/02 02:37:05;;;;;;;1.02;0.93;;;23.90;51.70;;;;;;5116969;28;20047;-52
2021/08/02 02:39:35;;;;;;;0.70;0.70;;;23.90;51.80;;;;;;5116971;28;20501;-50
2021/08/02 02:42:01;;;;;;;0.80;0.80;;;23.90;51.70;;;;;;5117073;28;20418;-47
2021/08/02 02:44:28;;;;;;;0.70;0.70;;;23.90;51.70;;;;;;5135760;28;20047;-51
2021/08/02 02:46:57;;;;;;;1.10;0.63;;;23.90;51.80;;;;;;5116818;28;20055;-46
2021/08/02 02:49:25;;;;;;;0.73;0.70;;;23.80;51.70;;;;;;5117240;28;20126;-48
2021/08/02 02:51:53;;;;;;;0.90;0.90;;;23.90;51.80;;;;;;5114128;28;20048;-51
2021/08/02 02:54:22;;;;;;;0.80;0.80;;;23.80;51.80;;;;;;5135023;28;20054;-54
2021/08/02 02:56:54;;;;;;;0.70;0.70;;;23.90;51.80;;;;;;5117161;28;20043;-54
2021/08/02 02:59:22;;;;;;;0.80;0.80;;;23.80;51.80;;;;;;5116653;28;20078;-51
2021/08/02 03:01:51;;;;;;;0.82;0.80;;;23.80;51.80;;;;;;5116708;28;20522;-53
2021/08/02 03:04:28;;;;;;;0.80;0.80;;;23.80;51.80;;;;;;5135128;28;20137;-53
2021/08/02 03:06:59;;;;;;;0.75;0.75;;;23.80;51.80;;;;;;5135481;28;20054;-49
2021/08/02 03:09:33;;;;;;;0.63;0.63;;;23.80;51.90;;;;;;5100171;28;20399;-51
2021/08/02 03:11:59;;;;;;;0.80;0.80;;;23.80;51.90;;;;;;5135568;28;20059;-55
2021/08/02 03:14:25;;;;;;;0.82;0.70;;;23.80;51.90;;;;;;5135557;28;20069;-54
2021/08/02 03:16:50;;;;;;;0.98;0.90;;;23.80;51.90;;;;;;5134817;28;20051;-53
2021/08/02 03:19:16;;;;;;;0.60;0.60;;;23.80;51.90;;;;;;5115097;28;20056;-46
2021/08/02 03:21:42;;;;;;;0.70;0.70;;;23.80;51.90;;;;;;5135205;28;20050;-51
2021/08/02 03:24:41;;;;;;;0.60;0.60;;;23.80;51.90;;;;;;5134637;28;20050;-52
2021/08/02 03:27:37;;;;;;;0.80;0.80;;;23.80;51.90;;;;;;5134809;28;20498;-50
2021/08/02 03:30:05;;;;;;;0.70;0.70;;;23.80;51.90;;;;;;5095597;28;20070;-51
2021/08/02 03:32:33;;;;;;;0.95;0.82;;;23.80;51.90;;;;;;5134744;28;20093;-54
2021/08/02 03:35:08;;;;;;;0.60;0.60;;;23.80;51.90;;;;;;5116124;28;20054;-55
2021/08/02 03:37:35;;;;;;;0.75;0.75;;;23.80;51.90;;;;;;5134573;28;20065;-50
2021/08/02 03:40:03;;;;;;;0.63;0.63;;;23.70;51.90;;;;;;5134520;28;20081;-52
2021/08/02 03:42:31;;;;;;;0.77;0.77;;;23.70;51.90;;;;;;5134558;28;20140;-49
2021/08/02 03:44:57;;;;;;;0.70;0.70;;;23.70;52.00;;;;;;5134603;28;20506;-51
2021/08/02 03:47:23;;;;;;;0.57;0.57;;;23.70;51.90;;;;;;5134338;28;20058;-49
2021/08/02 03:49:49;;;;;;;0.82;0.82;;;23.70;52.00;;;;;;5134501;28;20406;-49
2021/08/02 03:52:16;;;;;;;0.77;0.77;;;23.70;52.00;;;;;;5134357;28;20050;-49
2021/08/02 03:54:42;;;;;;;0.90;0.90;;;23.70;52.00;;;;;;5116395;28;20112;-50
2021/08/02 03:57:08;;;;;;;0.88;0.88;;;23.70;52.00;;;;;;5134273;28;20474;-52
2021/08/02 03:59:34;;;;;;;0.70;0.70;;;23.70;52.00;;;;;;5134362;28;20085;-51
2021/08/02 04:02:00;;;;;;;0.80;0.80;;;23.70;52.00;;;;;;5134615;27;20047;-50
2021/08/02 04:04:25;;;;;;;0.65;0.65;;;23.70;52.00;;;;;;5115973;28;20047;-48
2021/08/02 04:06:51;;;;;;;0.80;0.80;;;23.70;52.00;;;;;;5134116;28;20047;-52
2021/08/02 04:09:18;;;;;;;0.68;0.68;;;23.70;52.00;;;;;;5134303;28;20403;-49
2021/08/02 04:11:45;;;;;;;0.60;0.60;;;23.70;52.00;;;;;;5133945;28;20047;-50
2021/08/02 04:14:11;;;;;;;0.93;0.88;;;23.70;52.00;;;;;;5134009;28;20051;-54
2021/08/02 04:16:37;;;;;;;0.60;0.60;;;23.70;52.00;;;;;;5113885;28;20515;-50
2021/08/02 04:19:04;;;;;;;0.70;0.70;;;23.70;52.00;;;;;;5133588;28;20043;-47
2021/08/02 04:21:30;;;;;;;0.70;0.70;;;23.70;52.00;;;;;;5133590;28;20465;-51
2021/08/02 04:23:55;;;;;;;0.60;0.60;;;23.70;52.00;;;;;;5113842;28;20073;-52
2021/08/02 04:26:21;;;;;;;0.63;0.55;;;23.70;52.00;;;;;;5133715;28;20081;-49
2021/08/02 04:28:49;;;;;;;0.75;0.70;;;23.70;52.00;;;;;;5133802;28;20459;-51
2021/08/02 04:31:15;;;;;;;0.75;0.70;;;23.70;52.00;;;;;;5134070;28;20138;-52
2021/08/02 04:33:40;;;;;;;0.80;0.80;;;23.70;52.50;;;;;;5133813;28;20477;-48
2021/08/02 04:36:06;;;;;;;0.70;0.70;;;23.70;52.00;;;;;;5133691;28;20050;-50
2021/08/02 04:38:32;;;;;;;0.80;0.80;;;23.70;52.00;;;;;;5133533;28;20149;-52
2021/08/02 04:40:58;;;;;;;0.57;0.57;;;23.70;52.00;;;;;;5133794;28;20051;-52
2021/08/02 04:43:24;;;;;;;0.60;0.60;;;23.70;52.00;;;;;;5133699;28;20054;-52
2021/08/02 04:45:50;;;;;;;0.60;0.60;;;23.70;52.00;;;;;;5133921;28;20067;-51
2021/08/02 04:48:16;;;;;;;0.80;0.77;;;23.70;52.00;;;;;;5133397;28;20479;-51
2021/08/02 04:50:44;;;;;;;0.90;0.90;;;23.70;52.00;;;;;;5134092;28;20050;-50
2021/08/02 04:53:10;;;;;;;0.50;0.50;;;23.70;52.00;;;;;;5133379;28;20509;-51
2021/08/02 04:55:37;;;;;;;0.73;0.73;;;23.70;51.90;;;;;;5133532;28;20467;-50
2021/08/02 04:58:03;;;;;;;0.65;0.65;;;23.70;51.90;;;;;;5133247;28;20047;-50
2021/08/02 05:00:29;;;;;;;0.80;0.80;;;23.70;51.90;;;;;;5133348;28;20066;-48
2021/08/02 05:02:54;;;;;;;0.93;0.90;;;23.70;51.90;;;;;;5133385;28;20213;-50
2021/08/02 05:05:20;;;;;;;0.70;0.70;;;23.70;51.90;;;;;;5133196;28;20039;-49
2021/08/02 05:07:45;;;;;;;0.70;0.68;;;23.70;51.90;;;;;;5133214;28;20057;-51
2021/08/02 05:10:11;;;;;;;0.70;0.70;;;23.70;51.90;;;;;;5133975;28;20043;-47
2021/08/02 05:12:37;;;;;;;0.65;0.65;;;23.70;51.90;;;;;;5133353;28;20107;-48
2021/08/02 05:15:07;;;;;;;0.60;0.60;;;23.70;51.90;;;;;;5135064;27;20474;-47
2021/08/02 05:17:33;;;;;;;0.70;0.70;;;23.70;51.80;;;;;;5118379;28;20482;-51
2021/08/02 05:19:59;;;;;;;0.70;0.70;;;23.70;52.40;;;;;;5136855;28;20055;-48
2021/08/02 05:22:25;;;;;;;0.80;0.80;;;23.70;51.80;;;;;;5136802;28;20095;-48
2021/08/02 05:24:50;;;;;;;0.80;0.80;;;23.70;51.80;;;;;;5136766;28;20450;-47
2021/08/02 05:27:16;;;;;;;0.70;0.70;;;23.70;51.80;;;;;;5136727;28;20057;-49
2021/08/02 05:29:41;;;;;;;0.80;0.80;;;23.70;51.80;;;;;;5137030;28;20051;-46
2021/08/02 05:32:07;;;;;;;0.60;0.60;;;23.70;51.80;;;;;;5136574;28;20054;-51
2021/08/02 05:34:33;;;;;;;1.38;0.93;;;23.70;51.80;;;;;;5136563;28;20047;-46
2021/08/02 05:36:58;;;;;;;0.68;0.68;;;23.70;51.80;;;;;;5118634;28;20051;-52
2021/08/02 05:39:24;;;;;;;0.98;0.90;;;23.70;51.70;;;;;;5136493;28;20184;-49
2021/08/02 05:41:50;;;;;;;0.68;0.68;;;23.70;51.80;;;;;;5137101;28;20483;-50
2021/08/02 05:44:16;;;;;;;0.70;0.70;;;23.80;51.80;;;;;;5118012;28;20119;-54
2021/08/02 05:46:41;;;;;;;0.70;0.70;;;23.80;51.70;;;;;;5136375;28;20109;-49
2021/08/02 05:49:07;;;;;;;0.70;0.70;;;23.80;51.70;;;;;;5136219;28;20062;-52
2021/08/02 05:51:32;;;;;;;0.75;0.70;;;23.80;51.70;;;;;;5136274;28;20055;-54
2021/08/02 05:53:58;;;;;;;0.75;0.75;;;23.80;51.60;;;;;;5136592;28;20147;-52
2021/08/02 05:56:24;;;;;;;0.80;0.80;;;23.80;51.60;;;;;;5136503;28;20069;-52
2021/08/02 05:58:49;;;;;;;0.95;0.93;;;23.80;51.60;;;;;;5135951;28;20050;-51
2021/08/02 06:01:15;;;;;;;0.65;0.60;;;23.80;51.50;;;;;;5136726;28;20047;-49
2021/08/02 06:03:40;;;;;;;0.50;0.50;;;23.90;51.50;;;;;;5136168;28;20081;-48
2021/08/02 06:06:06;;;;;;;0.60;0.60;;;23.90;51.50;;;;;;5136400;28;20054;-52
2021/08/02 06:08:35;;;;;;;0.80;0.80;;;23.90;51.50;;;;;;5136065;28;20070;-49
2021/08/02 06:11:01;;;;;;;0.73;0.70;;;23.80;51.50;;;;;;5136005;28;20047;-50
2021/08/02 06:13:27;;;;;;;0.73;0.73;;;23.80;51.50;;;;;;5135971;28;20100;-48
2021/08/02 06:15:52;;;;;;;0.57;0.57;;;23.80;51.50;;;;;;5117846;28;20099;-49
2021/08/02 06:18:18;;;;;;;0.93;0.85;;;23.80;51.50;;;;;;5135708;28;20134;-54
2021/08/02 06:20:43;;;;;;;0.60;0.60;;;23.90;51.50;;;;;;5116109;28;20056;-50
2021/08/02 06:23:09;;;;;;;1.23;0.70;;;23.90;51.40;;;;;;5135875;28;20079;-47
2021/08/02 06:25:34;;;;;;;0.70;0.60;;;23.90;51.40;;;;;;5134949;27;20543;-51
2021/08/02 06:28:00;;;;;;;0.70;0.70;;;23.90;51.40;;;;;;5135765;28;20519;-54
2021/08/02 06:30:26;;;;;;;0.93;0.70;;;23.90;51.30;;;;;;5136080;28;20131;-48
2021/08/02 06:32:51;;;;;;;0.70;0.70;;;24.00;51.30;;;;;;5135922;28;20486;-51
2021/08/02 06:35:17;;;;;;;0.57;0.57;;;24.00;51.20;;;;;;5116926;28;20047;-52
2021/08/02 06:37:42;;;;;;;0.70;0.70;;;24.00;51.20;;;;;;5135464;28;20059;-53
2021/08/02 06:40:14;;;;;;;0.60;0.60;;;24.00;51.20;;;;;;5135736;28;20142;-46
2021/08/02 06:42:40;;;;;;;0.70;0.70;;;24.00;51.20;;;;;;5135776;28;20120;-54
2021/08/02 06:45:06;;;;;;;1.23;0.60;;;24.00;51.10;;;;;;5135802;28;20082;-52
2021/08/02 06:47:31;;;;;;;0.75;0.75;;;24.10;51.10;;;;;;5116855;28;20047;-50
2021/08/02 06:49:57;;;;;;;1.10;0.80;;;24.00;51.00;;;;;;5116826;28;20058;-51
2021/08/02 06:52:22;;;;;;;0.80;0.70;;;24.10;50.90;;;;;;5135885;28;20107;-50
2021/08/02 06:54:48;;;;;;;1.15;0.73;;;24.10;50.90;;;;;;5135352;28;20069;-46
2021/08/02 06:57:14;;;;;;;0.75;0.70;;;24.20;50.90;;;;;;5135182;28;20075;-48
2021/08/02 06:59:40;;;;;;;1.08;0.65;;;24.20;50.80;;;;;;5116742;28;20479;-47
2021/08/02 07:02:06;;;;;;;0.52;0.52;;;24.20;50.80;;;;;;5135477;28;20093;-47
2021/08/02 07:04:32;;;;;;;0.50;0.50;;;24.20;50.80;;;;;;5135181;28;20047;-46
2021/08/02 07:06:58;;;;;;;0.68;0.65;;;24.20;50.70;;;;;;5116878;28;20397;-49
2021/08/02 07:09:24;;;;;;;0.60;0.60;;;24.20;50.70;;;;;;5135059;28;20138;-47
2021/08/02 07:11:50;;;;;;;0.60;0.60;;;24.30;50.80;;;;;;5134652;28;20051;-50
2021/08/02 07:14:16;;;;;;;0.50;0.50;;;24.40;50.60;;;;;;5134880;28;20047;-50
2021/08/02 07:16:41;;;;;;;0.60;0.55;;;24.50;50.30;;;;;;5134876;28;20435;-48
2021/08/02 07:19:07;;;;;;;0.70;0.70;;;24.50;49.90;;;;;;5134384;28;20150;-47
2021/08/02 07:21:33;;;;;;;0.70;0.70;;;24.60;49.80;;;;;;5134715;28;20067;-48
2021/08/02 07:23:59;;;;;;;0.88;0.70;;;24.70;49.80;;;;;;5134644;28;20062;-52
2021/08/02 07:26:26;;;;;;;1.20;0.68;;;24.70;49.70;;;;;;5134826;28;20132;-47
2021/08/02 07:28:54;;;;;;;0.60;0.60;;;24.70;49.60;;;;;;5134335;28;20409;-52
2021/08/02 07:31:19;;;;;;;0.50;0.50;;;24.70;49.50;;;;;;5134673;28;20043;-53
2021/08/02 07:33:45;;;;;;;0.70;0.70;;;24.60;49.60;;;;;;5134592;28;20051;-50
2021/08/02 07:36:10;;;;;;;0.73;0.50;;;24.60;49.70;;;;;;5135156;28;20062;-51
2021/08/02 07:38:36;;;;;;;0.90;0.68;;;24.60;49.80;;;;;;5133702;27;20172;-53
2021/08/02 07:41:02;;;;;;;0.80;0.63;;;24.50;49.90;;;;;;5134538;28;20092;-48
2021/08/02 07:43:28;;;;;;;0.70;0.65;;;24.50;50.00;;;;;;5134531;28;20055;-51
2021/08/02 07:45:53;;;;;;;0.70;0.65;;;24.40;50.10;;;;;;5134912;28;20081;-50
2021/08/02 07:48:19;;;;;;;0.50;0.50;;;24.40;50.10;;;;;;5134367;28;20047;-52
2021/08/02 07:50:44;;;;;;;1.45;0.70;;;24.40;50.20;;;;;;5134295;28;20055;-50
2021/08/02 07:53:10;;;;;;;0.60;0.60;;;24.40;50.20;;;;;;5134624;28;20051;-49
2021/08/02 07:55:35;;;;;;;0.60;0.60;;;24.40;50.20;;;;;;5115623;28;20130;-50
2021/08/02 07:58:01;;;;;;;1.27;0.70;;;24.40;50.20;;;;;;5134137;28;20051;-48
2021/08/02 08:00:27;;;;;;;1.70;0.77;;;24.40;50.10;;;;;;5114038;28;20055;-47
2021/08/02 08:02:52;;;;;;;0.75;0.65;;;24.40;50.10;;;;;;5134042;28;20062;-52
2021/08/02 08:05:18;;;;;;;0.88;0.85;;;24.50;50.10;;;;;;5134041;28;20571;-53
2021/08/02 08:07:49;;;;;;;0.68;0.68;;;24.50;50.10;;;;;;5134170;28;20051;-48
2021/08/02 08:10:18;;;;;;;;;;;24.50;50.00;;;;;;5135019;28;20079;-47
2021/08/02 08:12:44;;;;;;;1.15;0.77;;;24.50;49.90;;;;;;5133984;28;19916;-47
2021/08/02 08:15:11;;;;;;;1.10;0.68;;;24.60;49.90;;;;;;5133816;28;20051;-48
2021/08/02 08:17:37;;;;;;;0.70;0.70;;;24.60;49.70;;;;;;5134342;28;20138;-49
2021/08/02 08:20:05;;;;;;;1.27;0.80;;;24.70;49.70;;;;;;5133968;28;20614;-51
2021/08/02 08:22:31;;;;;;;0.60;0.60;;;24.70;49.60;;;;;;5134105;28;20410;-51
2021/08/02 08:24:57;;;;;;;0.75;0.60;;;24.80;49.50;;;;;;5133849;28;20055;-50
2021/08/02 08:27:22;;;;;;;0.80;0.50;;;24.70;49.40;;;;;;5115362;28;20491;-48
2021/08/02 08:29:48;;;;;;;0.50;0.50;;;24.70;49.40;;;;;;5133788;28;20070;-49
2021/08/02 08:32:14;;;;;;;0.70;0.57;;;24.80;49.30;;;;;;5133694;28;20066;-47
2021/08/02 08:34:39;;;;;;;0.55;0.55;;;24.80;49.30;;;;;;5133571;28;20047;-51
2021/08/02 08:37:05;;;;;;;0.93;0.82;;;24.80;49.20;;;;;;5133600;28;20058;-48
2021/08/02 08:39:30;;;;;;;0.77;0.70;;;24.80;49.20;;;;;;5133532;28;20051;-52
2021/08/02 08:41:58;;;;;;;0.60;0.60;;;24.80;49.20;;;;;;5133654;28;20405;-47
2021/08/02 08:44:26;;;;;;;0.60;0.60;;;24.80;49.20;;;;;;5134178;28;20495;-51
2021/08/02 08:46:52;;;;;;;0.70;0.70;;;24.80;49.10;;;;;;5133420;28;20051;-50
2021/08/02 08:49:18;;;;;;;0.70;0.70;;;24.80;49.10;;;;;;5132433;27;20419;-51
2021/08/02 08:51:44;;;;;;;0.80;0.65;;;24.80;49.10;;;;;;5133393;28;20111;-54
2021/08/02 08:54:10;;;;;;;0.82;0.77;;;24.90;49.10;;;;;;5133331;28;20051;-54
2021/08/02 08:56:36;;;;;;;0.80;0.63;;;24.90;49.00;;;;;;5133270;28;20456;-50
2021/08/02 08:59:02;;;;;;;1.50;0.90;;;24.90;48.90;;;;;;5133317;28;20051;-50
2021/08/02 09:01:30;;;;;;;1.52;0.80;;;24.90;48.90;;;;;;5133623;28;20058;-51
2021/08/02 09:04:01;;;;;;;1.65;0.80;;;24.90;48.90;;;;;;5133297;28;20078;-52
2021/08/02 09:06:27;;;;;;;0.77;0.70;;;25.00;48.90;;;;;;5133484;28;20047;-48
2021/08/02 09:08:53;;;;;;;1.27;0.82;;;25.00;48.90;;;;;;5113313;28;20128;-48
2021/08/02 09:11:25;;;;;;;0.80;0.80;;;25.00;48.90;;;;;;5133851;28;20126;-53
2021/08/02 09:13:51;;;;;;;0.98;0.55;;;25.00;48.80;;;;;;5133272;28;20142;-53
2021/08/02 09:16:22;;;;;;;0.73;0.73;;;25.00;48.80;;;;;;5133075;28;20051;-48
2021/08/02 09:18:58;;;;;;;1.00;0.90;;;25.00;48.80;;;;;;5114627;28;20058;-48
2021/08/02 09:21:25;;;;;;;1.05;0.70;;;25.00;48.70;;;;;;5133165;28;20055;-51
2021/08/02 09:23:52;;;;;;;0.57;0.57;;;25.00;48.70;;;;;;5133382;28;20107;-53
2021/08/02 09:26:32;;;;;;;1.35;0.73;;;25.00;48.60;;;;;;5133162;28;20051;-51
2021/08/02 09:28:58;;;;;;;0.77;0.77;;;25.10;48.60;;;;;;5132909;28;20055;-48
2021/08/02 09:31:48;;;;;;;0.50;0.50;;;25.10;48.60;;;;;;5132809;28;20156;-47
2021/08/02 09:34:15;;;;;;;1.05;0.85;;;25.10;48.50;;;;;;5133468;28;20052;-53
2021/08/02 09:36:43;;;;;;;1.27;0.80;;;25.20;48.50;;;;;;5132932;28;20051;-52
2021/08/02 09:39:11;;;;;;;1.13;0.73;;;25.20;48.40;;;;;;5114220;28;20146;-47
2021/08/02 09:41:37;;;;;;;1.05;0.90;;;25.20;48.30;;;;;;5132792;28;20047;-49
2021/08/02 09:44:05;;;;;;;0.82;0.82;;;25.20;48.30;;;;;;5133028;28;20099;-53
2021/08/02 09:46:31;;;;;;;2.28;0.95;;;25.20;48.20;;;;;;5132722;28;20133;-54
2021/08/02 09:49:04;;;;;;;1.55;0.80;;;25.30;48.30;;;;;;5113548;28;20091;-49
2021/08/02 09:51:41;;;;;;;1.13;0.80;;;25.30;48.20;;;;;;5132686;28;20054;-52
2021/08/02 09:54:06;;;;;;;0.70;0.70;;;25.30;48.20;;;;;;5132738;28;20051;-52
2021/08/02 09:56:32;;;;;;;1.17;0.68;;;25.30;48.10;;;;;;5132542;28;20483;-49
2021/08/02 09:58:58;;;;;;;1.45;0.80;;;25.30;48.10;;;;;;5132405;28;20081;-49
2021/08/02 10:01:23;;;;;;;1.20;0.77;;;25.30;48.10;;;;;;5114466;28;20055;-49
2021/08/02 10:03:49;;;;;;;1.10;1.00;;;25.30;48.10;;;;;;5136128;28;20546;-49
2021/08/02 10:06:15;;;;;;;3.17;0.80;;;25.30;48.00;;;;;;5136071;28;20550;-46
2021/08/02 10:08:42;;;;;;;1.35;0.90;;;25.30;48.00;;;;;;5117511;28;20051;-49
2021/08/02 10:11:08;;;;;;;1.08;0.80;;;25.30;47.90;;;;;;5135994;28;20054;-48
2021/08/02 10:13:37;;;;;;;1.17;0.70;;;25.30;47.90;;;;;;5135970;28;20116;-49
2021/08/02 10:16:06;;;;;;;1.95;0.93;;;25.30;48.00;;;;;;5135967;28;20491;-55
2021/08/02 10:18:32;;;;;;;1.05;0.85;;;25.30;48.00;;;;;;5135875;28;20055;-50
2021/08/02 10:21:07;;;;;;;1.38;0.80;;;25.30;48.00;;;;;;5135921;28;20051;-49
2021/08/02 10:23:33;;;;;;;1.98;1.20;;;25.30;47.90;;;;;;5135734;28;20137;-50
2021/08/02 10:25:58;;;;;;;1.48;0.73;;;25.30;48.50;;;;;;5135724;28;20530;-51
2021/08/02 10:28:24;;;;;;;2.50;0.90;;;25.30;48.00;;;;;;5135717;28;20051;-49
2021/08/02 10:31:05;;;;;;;2.63;0.90;;;25.30;47.90;;;;;;5117096;28;20419;-52
2021/08/02 10:33:49;;;;;;;1.50;0.90;;;25.30;47.90;;;;;;5135749;28;20051;-53
2021/08/02 10:36:18;;;;;;;1.33;0.80;;;25.30;47.90;;;;;;5136144;28;20357;-53
2021/08/02 10:38:49;;;;;;;5.45;1.42;;;25.40;47.90;;;;;;5135418;28;20066;-47
2021/08/02 10:41:29;;;;;;;1.55;0.90;;;25.40;47.80;;;;;;5135899;28;20112;-50
2021/08/02 10:43:55;;;;;;;1.45;1.20;;;25.40;47.70;;;;;;5135907;28;20475;-50
2021/08/02 10:46:25;;;;;;;0.90;0.75;;;25.40;47.60;;;;;;5135291;28;20062;-52
2021/08/02 10:49:06;;;;;;;1.20;0.80;;;25.40;47.50;;;;;;5135757;28;20047;-52
2021/08/02 10:51:32;;;;;;;0.90;0.80;;;25.40;47.50;;;;;;5135603;28;20051;-52
2021/08/02 10:54:03;;;;;;;1.55;0.85;;;25.40;47.60;;;;;;5135705;28;20051;-52
2021/08/02 10:56:32;;;;;;;0.82;0.80;;;25.40;47.70;;;;;;5135099;28;20047;-51
2021/08/02 10:59:00;;;;;;;2.20;1.30;;;25.40;47.70;;;;;;5134958;28;20538;-48
2021/08/02 11:01:27;;;;;;;2.58;0.88;;;25.30;47.70;;;;;;5135042;28;20055;-47
2021/08/02 11:04:09;;;;;;;2.67;1.00;;;25.40;47.80;;;;;;5135026;28;20047;-49
2021/08/02 11:06:35;;;;;;;0.70;0.70;;;25.40;47.80;;;;;;5135280;28;20395;-46
2021/08/02 11:09:01;;;;;;;1.83;1.10;;;25.40;47.80;;;;;;5134775;28;20058;-47
2021/08/02 11:11:29;;;;;;;4.00;0.90;;;25.30;47.80;;;;;;5114899;27;20055;-46
2021/08/02 11:14:12;;;;;;;1.77;1.20;;;25.30;47.80;;;;;;5114342;28;20078;-46
2021/08/02 11:16:45;;;;;;;1.35;1.00;;;25.30;47.80;;;;;;5116203;28;20088;-48
2021/08/02 11:19:18;;;;;;;1.88;0.90;;;25.30;47.80;;;;;;5135145;28;20503;-49
2021/08/02 11:21:45;;;;;;;1.23;0.90;;;25.30;47.80;;;;;;5134806;28;20126;-49
2021/08/02 11:24:12;;;;;;;2.90;1.05;;;25.30;47.80;;;;;;5134724;28;20406;-47
2021/08/02 11:26:54;;;;;;;2.38;1.10;;;25.30;47.70;;;;;;5134905;28;20059;-49
2021/08/02 11:29:25;;;;;;;1.60;0.82;;;25.40;47.80;;;;;;5116205;28;20051;-49
2021/08/02 11:32:12;;;;;;;3.58;0.95;;;25.40;47.70;;;;;;5135033;28;20127;-51
2021/08/02 11:34:40;;;;;;;1.23;0.85;;;25.40;47.60;;;;;;5134920;28;20047;-48
2021/08/02 11:37:14;;;;;;;2.95;0.95;;;25.40;47.50;;;;;;5134996;28;20122;-49
2021/08/02 11:39:47;;;;;;;2.50;1.23;;;25.40;47.50;;;;;;5134802;28;20054;-49
2021/08/02 11:42:16;;;;;;;1.00;0.88;;;25.50;47.40;;;;;;5134485;28;20134;-50
2021/08/02 11:44:48;;;;;;;1.58;0.93;;;25.50;47.40;;;;;;5134471;28;20043;-49
2021/08/02 11:47:19;;;;;;;2.35;0.95;;;25.60;47.40;;;;;;5134912;28;20099;-52
2021/08/02 11:49:46;;;;;;;1.55;0.80;;;25.50;47.30;;;;;;5116292;28;20130;-49
2021/08/02 11:52:16;;;;;;;1.35;0.90;;;25.60;47.30;;;;;;5134628;28;20433;-52
2021/08/02 11:54:44;;;;;;;2.15;1.10;;;25.60;47.20;;;;;;5134317;28;20080;-51
2021/08/02 11:57:20;;;;;;;2.08;1.10;;;25.60;47.20;;;;;;5134088;28;20050;-51
2021/08/02 12:00:15;;;;;;;1.83;1.10;;;25.60;47.20;;;;;;5134306;28;20499;-53
2021/08/02 12:02:45;;;;;;;1.33;0.90;;;25.60;47.10;;;;;;5134477;28;20058;-49
2021/08/02 12:05:28;;;;;;;0.93;0.80;;;25.60;47.00;;;;;;5134111;28;20059;-50
2021/08/02 12:07:55;;;;;;;1.52;0.90;;;25.70;47.10;;;;;;5133877;28;20062;-48
2021/08/02 12:10:24;;;;;;;2.20;0.90;;;25.70;47.00;;;;;;5134398;28;20129;-51
2021/08/02 12:12:59;;;;;;;0.90;0.90;;;25.70;46.90;;;;;;5134002;28;20464;-52
2021/08/02 12:15:26;;;;;;;0.85;0.85;;;25.70;46.90;;;;;;5134564;28;20054;-52
2021/08/02 12:17:53;;;;;;;2.13;1.05;;;25.70;46.90;;;;;;5133802;28;20505;-49
2021/08/02 12:20:38;;;;;;;1.10;0.80;;;25.80;46.90;;;;;;5133863;28;20095;-46
2021/08/02 12:23:06;;;;;;;2.47;0.85;;;25.80;46.90;;;;;;5115453;27;20047;-49
2021/08/02 12:25:40;;;;;;;2.58;1.45;;;25.80;46.90;;;;;;5133907;28;20050;-49
2021/08/02 12:28:06;;;;;;;1.17;0.98;;;25.80;46.90;;;;;;5115661;28;20554;-52
2021/08/02 12:30:33;;;;;;;1.23;0.80;;;25.80;46.80;;;;;;5133751;28;20410;-49
2021/08/02 12:32:59;;;;;;;3.05;1.38;;;25.80;46.80;;;;;;5133830;28;20054;-47
2021/08/02 12:35:25;;;;;;;1.58;0.75;;;25.80;46.80;;;;;;5115139;28;20051;-48
2021/08/02 12:37:51;;;;;;;3.08;1.00;;;25.80;46.80;;;;;;5133768;28;20535;-47
2021/08/02 12:40:17;;;;;;;1.30;0.90;;;25.70;46.70;;;;;;5133660;28;20043;-50
2021/08/02 12:42:46;;;;;;;1.23;0.80;;;25.70;46.80;;;;;;5133518;28;20619;-50
2021/08/02 12:45:14;;;;;;;2.05;1.08;;;25.60;46.90;;;;;;5133631;28;20047;-49
2021/08/02 12:47:39;;;;;;;0.90;0.70;;;25.60;47.00;;;;;;5133563;28;20055;-48
2021/08/02 12:50:08;;;;;;;1.08;0.93;;;25.60;47.10;;;;;;5133533;28;20051;-48
2021/08/02 12:52:34;;;;;;;2.70;1.08;;;25.60;47.20;;;;;;5114804;28;20055;-48
2021/08/02 12:55:00;;;;;;;1.30;0.82;;;25.50;47.20;;;;;;5133609;28;20082;-52
2021/08/02 12:57:27;;;;;;;1.45;0.90;;;25.50;47.20;;;;;;5133699;28;20134;-52